Time;durP1;ratioP1;P1;durP2;ratioP2;P2;SDS_P1;SDS_P2;PMS_P1;PMS_P2;Temp;Humidity;BMP_temperature;BMP_pressure;BME280_temperature;BME280_humidity;BME280_pressure;Samples;Min_cycle;Max_cycle;Signal;HPM_P1;HPM_P2
2021/05/20 00:02:33;;;;;;;17.93;7.93;;;8.60;99.90;;;;;;4433941;28;656337;-68
2021/05/20 00:05:20;;;;;;;23.33;9.30;;;8.60;99.90;;;;;;4453012;28;657085;-66
2021/05/20 00:08:07;;;;;;;22.23;8.40;;;8.60;99.90;;;;;;4429108;28;656488;-68
2021/05/20 00:10:54;;;;;;;23.52;9.02;;;8.60;99.90;;;;;;4448779;28;656778;-66
2021/05/20 00:13:41;;;;;;;21.97;9.63;;;8.70;99.90;;;;;;4448559;28;656615;-67
2021/05/20 00:16:28;;;;;;;25.57;8.97;;;8.70;99.90;;;;;;4428828;28;656590;-66
2021/05/20 00:19:16;;;;;;;27.87;9.43;;;8.70;99.90;;;;;;4440607;28;657446;-66
2021/05/20 00:22:03;;;;;;;21.43;9.30;;;8.70;99.90;;;;;;4426748;28;657287;-67
2021/05/20 00:24:50;;;;;;;22.07;9.70;;;8.70;99.90;;;;;;4449810;28;656863;-66
2021/05/20 00:27:37;;;;;;;27.43;10.27;;;8.70;99.90;;;;;;4430145;28;656827;-67
2021/05/20 00:30:24;;;;;;;25.00;9.63;;;8.70;99.90;;;;;;4446022;28;657983;-66
2021/05/20 00:33:11;;;;;;;20.93;8.47;;;8.70;99.90;;;;;;4448263;28;656837;-66
2021/05/20 00:35:59;;;;;;;21.60;8.87;;;8.80;99.90;;;;;;4429985;28;656490;-67
2021/05/20 00:38:46;;;;;;;22.67;9.80;;;8.80;99.90;;;;;;4439935;28;656986;-66
2021/05/20 00:41:33;;;;;;;24.27;8.73;;;8.80;99.90;;;;;;4420499;28;656858;-66
2021/05/20 00:44:20;;;;;;;18.80;8.97;;;8.70;99.90;;;;;;4451466;28;656828;-66
2021/05/20 00:47:07;;;;;;;26.43;9.17;;;8.70;99.90;;;;;;4432749;28;656342;-68
2021/05/20 00:49:55;;;;;;;23.43;9.87;;;8.70;99.90;;;;;;4444803;28;657039;-67
2021/05/20 00:52:42;;;;;;;22.67;8.60;;;8.60;99.90;;;;;;4440470;28;656736;-67
2021/05/20 00:55:34;;;;;;;21.43;9.57;;;8.70;99.90;;;;;;4421138;28;657478;-67
2021/05/20 00:58:21;;;;;;;18.02;9.65;;;8.70;99.90;;;;;;4425425;28;656604;-66
2021/05/20 01:01:09;;;;;;;18.98;8.45;;;8.60;99.90;;;;;;4419840;28;656919;-66
2021/05/20 01:03:56;;;;;;;23.13;9.37;;;8.60;99.90;;;;;;4447961;28;656701;-66
2021/05/20 01:06:43;;;;;;;21.43;8.70;;;8.60;99.90;;;;;;4428094;28;657009;-67
2021/05/20 01:09:31;;;;;;;17.77;8.63;;;8.50;99.90;;;;;;4447302;28;656803;-66
2021/05/20 01:12:18;;;;;;;19.70;9.43;;;8.50;99.90;;;;;;4421453;28;657272;-67
2021/05/20 01:15:07;;;;;;;21.70;8.53;;;8.40;99.90;;;;;;4451524;28;656595;-67
2021/05/20 01:17:54;;;;;;;23.10;9.73;;;8.40;99.90;;;;;;4429403;28;656609;-66
2021/05/20 01:20:43;;;;;;;21.80;9.20;;;8.30;99.90;;;;;;4444851;28;656868;-66
2021/05/20 01:23:30;;;;;;;18.77;9.20;;;8.30;99.90;;;;;;4424480;28;656874;-66
2021/05/20 01:26:17;;;;;;;22.50;8.60;;;8.20;99.90;;;;;;4423314;28;656242;-68
2021/05/20 01:29:04;;;;;;;23.43;10.30;;;8.20;99.90;;;;;;4448580;28;656471;-66
2021/05/20 01:31:51;;;;;;;18.77;9.53;;;8.20;99.90;;;;;;4446271;28;657788;-67
2021/05/20 01:34:41;;;;;;;20.67;10.93;;;8.10;99.90;;;;;;4416621;28;656135;-66
2021/05/20 01:37:29;;;;;;;21.17;10.87;;;8.10;99.90;;;;;;4426094;28;657572;-67
2021/05/20 01:40:16;;;;;;;20.73;10.43;;;8.00;99.90;;;;;;4449021;28;657163;-67
2021/05/20 01:43:03;;;;;;;19.27;9.53;;;8.00;99.90;;;;;;4398135;28;657856;-67
2021/05/20 01:45:53;;;;;;;19.07;9.03;;;7.90;99.90;;;;;;4433820;28;658235;-66
2021/05/20 01:48:41;;;;;;;16.80;8.77;;;7.80;99.90;;;;;;4407585;28;657782;-66
2021/05/20 01:51:28;;;;;;;22.53;9.10;;;7.70;99.90;;;;;;4404540;28;656545;-68
2021/05/20 01:54:16;;;;;;;17.30;9.27;;;7.60;99.90;;;;;;4430411;28;657004;-66
2021/05/20 01:57:04;;;;;;;21.53;10.70;;;7.60;99.90;;;;;;4405428;28;656938;-66
2021/05/20 01:59:51;;;;;;;16.60;9.03;;;7.50;99.90;;;;;;4429029;28;658720;-67
2021/05/20 02:02:38;;;;;;;26.13;9.97;;;7.50;99.90;;;;;;4406118;28;657195;-67
2021/05/20 02:05:24;;;;;;;17.57;9.40;;;7.40;99.90;;;;;;4429767;28;657453;-66
2021/05/20 02:08:11;;;;;;;23.83;10.27;;;7.40;99.90;;;;;;4422646;28;656847;-66
2021/05/20 02:11:01;;;;;;;24.27;10.57;;;7.30;99.90;;;;;;4404772;28;657865;-67
2021/05/20 02:13:48;;;;;;;16.27;9.50;;;7.30;99.90;;;;;;4419899;28;658149;-67
2021/05/20 02:16:35;;;;;;;20.83;9.67;;;7.20;99.90;;;;;;4446543;28;657774;-67
2021/05/20 02:19:21;;;;;;;19.30;9.33;;;7.10;99.90;;;;;;4446567;28;656416;-66
2021/05/20 02:22:08;;;;;;;18.60;9.90;;;7.10;99.90;;;;;;4434282;28;656601;-67
2021/05/20 02:24:55;;;;;;;18.70;9.27;;;7.00;99.90;;;;;;4452143;28;656759;-67
2021/05/20 02:27:43;;;;;;;20.70;10.57;;;7.00;99.90;;;;;;4424879;28;656649;-67
2021/05/20 02:30:31;;;;;;;22.67;10.53;;;7.00;99.90;;;;;;4452001;28;658306;-67
2021/05/20 02:33:18;;;;;;;20.53;10.90;;;7.00;99.90;;;;;;4433043;28;657842;-67
2021/05/20 02:36:05;;;;;;;21.20;10.97;;;6.90;99.90;;;;;;4444367;28;658233;-66
2021/05/20 02:38:52;;;;;;;20.83;9.50;;;6.80;99.90;;;;;;4436723;28;657734;-67
2021/05/20 02:41:39;;;;;;;23.20;10.17;;;6.80;99.90;;;;;;4452940;28;656989;-65
2021/05/20 02:44:27;;;;;;;20.13;10.10;;;6.70;99.90;;;;;;4441308;28;657361;-65
2021/05/20 02:47:14;;;;;;;20.23;10.73;;;6.70;99.90;;;;;;4427986;28;658566;-66
2021/05/20 02:50:01;;;;;;;20.70;10.80;;;6.60;99.90;;;;;;4442308;28;657765;-65
2021/05/20 02:52:48;;;;;;;21.60;11.23;;;6.60;99.90;;;;;;4421775;28;657599;-66
2021/05/20 02:55:35;;;;;;;21.50;10.73;;;6.50;99.90;;;;;;4450392;28;658821;-65
2021/05/20 02:58:23;;;;;;;17.98;10.38;;;6.50;99.90;;;;;;4435994;28;657987;-67
2021/05/20 03:01:11;;;;;;;18.40;11.00;;;6.50;99.90;;;;;;4454749;28;658337;-66
2021/05/20 03:03:58;;;;;;;20.58;11.25;;;6.40;99.90;;;;;;4429022;28;657628;-66
2021/05/20 03:06:45;;;;;;;20.63;10.77;;;6.40;99.90;;;;;;4454003;28;658900;-66
2021/05/20 03:09:32;;;;;;;22.23;10.03;;;6.40;99.90;;;;;;4430168;28;657616;-67
2021/05/20 03:12:19;;;;;;;23.27;10.57;;;6.40;99.90;;;;;;4455880;28;657765;-66
2021/05/20 03:15:07;;;;;;;16.00;9.37;;;6.40;99.90;;;;;;4448386;28;657268;-66
2021/05/20 03:17:55;;;;;;;25.43;11.70;;;6.40;99.90;;;;;;4429523;28;657512;-66
2021/05/20 03:20:42;;;;;;;20.40;11.47;;;6.50;99.90;;;;;;4444063;28;658010;-67
2021/05/20 03:23:29;;;;;;;20.93;11.10;;;6.50;99.90;;;;;;4455511;28;657111;-67
2021/05/20 03:26:16;;;;;;;24.73;11.93;;;6.60;99.90;;;;;;4446572;28;657554;-65
2021/05/20 03:29:04;;;;;;;24.03;11.13;;;6.60;99.90;;;;;;4432077;28;657933;-67
2021/05/20 03:31:51;;;;;;;21.37;11.60;;;6.60;99.90;;;;;;4449175;28;658597;-65
2021/05/20 03:34:39;;;;;;;24.40;11.57;;;6.60;99.90;;;;;;4430518;28;658946;-65
2021/05/20 03:37:26;;;;;;;22.93;10.83;;;6.70;99.90;;;;;;4446345;28;656908;-66
2021/05/20 03:40:13;;;;;;;24.57;12.23;;;6.70;99.90;;;;;;4423166;28;657858;-66
2021/05/20 03:43:00;;;;;;;20.17;11.17;;;6.80;99.90;;;;;;4442470;28;657240;-66
2021/05/20 03:45:47;;;;;;;24.60;12.40;;;6.80;99.90;;;;;;4428851;28;657640;-67
2021/05/20 03:48:34;;;;;;;26.90;13.17;;;7.00;99.90;;;;;;4447789;28;657512;-66
2021/05/20 03:51:22;;;;;;;23.50;13.00;;;7.10;99.90;;;;;;4447967;28;657397;-66
2021/05/20 03:54:09;;;;;;;23.17;12.43;;;7.30;99.90;;;;;;4425090;28;658257;-65
2021/05/20 03:56:56;;;;;;;25.80;12.53;;;7.40;99.90;;;;;;4451749;28;656962;-65
2021/05/20 03:59:43;;;;;;;24.00;12.60;;;7.50;99.90;;;;;;4428909;28;658988;-66
2021/05/20 04:02:30;;;;;;;26.07;14.07;;;7.60;99.90;;;;;;4450637;28;657718;-66
2021/05/20 04:05:17;;;;;;;25.70;13.37;;;7.70;99.90;;;;;;4438403;28;657627;-67
2021/05/20 04:08:06;;;;;;;27.55;14.38;;;7.90;99.90;;;;;;4446020;28;657183;-66
2021/05/20 04:10:53;;;;;;;29.00;14.07;;;8.10;99.90;;;;;;4428288;28;658137;-66
2021/05/20 04:13:40;;;;;;;29.30;14.43;;;8.30;99.90;;;;;;4448549;28;657175;-66
2021/05/20 04:16:27;;;;;;;25.27;14.57;;;8.30;99.90;;;;;;4429290;28;657644;-67
2021/05/20 04:19:15;;;;;;;34.07;15.73;;;8.50;99.90;;;;;;4451398;28;657499;-65
2021/05/20 04:22:02;;;;;;;30.80;14.03;;;8.60;99.90;;;;;;4428105;28;658089;-66
2021/05/20 04:24:50;;;;;;;24.20;14.27;;;8.80;99.90;;;;;;4447271;28;658139;-66
2021/05/20 04:27:37;;;;;;;27.63;14.77;;;8.90;99.90;;;;;;4428571;28;658367;-66
2021/05/20 04:30:26;;;;;;;24.97;13.17;;;9.00;99.90;;;;;;4443379;28;657716;-66
2021/05/20 04:33:12;;;;;;;26.43;13.63;;;9.20;99.90;;;;;;4428651;28;657854;-66
2021/05/20 04:35:59;;;;;;;27.87;14.20;;;9.40;99.90;;;;;;4452576;28;658257;-66
2021/05/20 04:38:46;;;;;;;26.23;13.90;;;9.50;99.90;;;;;;4446357;28;657038;-66
2021/05/20 04:41:34;;;;;;;25.63;14.00;;;9.60;99.90;;;;;;4423041;28;659061;-65
2021/05/20 04:44:21;;;;;;;24.17;12.73;;;9.70;99.90;;;;;;4446878;28;658208;-65
2021/05/20 04:47:08;;;;;;;23.67;12.43;;;9.90;99.90;;;;;;4426045;28;657398;-66
2021/05/20 04:49:55;;;;;;;28.37;13.03;;;10.00;99.90;;;;;;4447157;28;658880;-65
2021/05/20 04:52:42;;;;;;;24.83;12.63;;;10.20;99.90;;;;;;4423724;28;659103;-66
2021/05/20 04:55:29;;;;;;;23.33;13.27;;;10.40;99.90;;;;;;4445071;28;659319;-65
2021/05/20 04:58:18;;;;;;;23.93;12.70;;;10.50;99.90;;;;;;4446283;28;659047;-66
2021/05/20 05:01:05;;;;;;;26.00;12.03;;;10.60;99.90;;;;;;4416556;28;658944;-66
2021/05/20 05:03:52;;;;;;;23.60;11.23;;;10.80;99.90;;;;;;4437709;28;658707;-67
2021/05/20 05:06:39;;;;;;;25.37;11.47;;;10.90;99.90;;;;;;4449866;28;658503;-66
2021/05/20 05:09:26;;;;;;;22.00;10.80;;;11.00;99.90;;;;;;4443025;28;658505;-66
2021/05/20 05:12:13;;;;;;;20.17;10.03;;;11.20;99.90;;;;;;4419561;28;659202;-66
2021/05/20 05:15:01;;;;;;;21.67;10.87;;;11.30;99.90;;;;;;4445321;28;659163;-66
2021/05/20 05:17:48;;;;;;;17.90;9.43;;;11.50;99.90;;;;;;4426793;28;658370;-65
2021/05/20 05:20:35;;;;;;;20.60;9.25;;;11.70;99.90;;;;;;4446689;28;658624;-66
2021/05/20 05:23:23;;;;;;;19.93;9.10;;;11.80;99.90;;;;;;4421259;28;658356;-67
2021/05/20 05:26:10;;;;;;;21.37;8.93;;;11.80;99.90;;;;;;4445740;28;658373;-67
2021/05/20 05:28:57;;;;;;;20.20;8.30;;;11.80;99.90;;;;;;4445982;28;657244;-66
2021/05/20 05:31:45;;;;;;;24.20;9.10;;;11.90;99.90;;;;;;4427167;28;657998;-66
2021/05/20 05:34:32;;;;;;;17.23;8.40;;;11.90;99.90;;;;;;4447090;28;657555;-66
2021/05/20 05:37:19;;;;;;;16.13;7.50;;;12.00;99.90;;;;;;4428037;28;657999;-66
2021/05/20 05:40:07;;;;;;;16.27;7.73;;;12.10;99.90;;;;;;4446898;28;658152;-66
2021/05/20 05:42:54;;;;;;;12.17;7.40;;;12.20;99.90;;;;;;4414594;28;658494;-66
2021/05/20 05:45:41;;;;;;;16.90;7.75;;;12.20;99.90;;;;;;4445352;28;658344;-65
2021/05/20 05:48:29;;;;;;;16.30;8.27;;;12.10;99.90;;;;;;4422417;28;657787;-66
2021/05/20 05:51:19;;;;;;;15.93;7.70;;;12.20;99.90;;;;;;4446794;28;657590;-66
2021/05/20 05:54:07;;;;;;;12.93;7.30;;;12.20;99.90;;;;;;4422940;28;657593;-65
2021/05/20 05:56:54;;;;;;;12.23;6.93;;;12.40;99.90;;;;;;4426613;28;658255;-66
2021/05/20 05:59:41;;;;;;;11.87;7.47;;;12.40;99.90;;;;;;4442215;28;657869;-66
2021/05/20 06:02:30;;;;;;;13.23;7.37;;;12.30;99.90;;;;;;4422798;28;657671;-65
2021/05/20 06:05:18;;;;;;;14.53;7.93;;;12.30;99.90;;;;;;4425613;28;657768;-67
2021/05/20 06:08:06;;;;;;;12.83;8.00;;;12.50;99.90;;;;;;4442197;28;658261;-66
2021/05/20 06:10:53;;;;;;;14.03;7.10;;;12.40;99.90;;;;;;4412582;28;658050;-65
2021/05/20 06:13:40;;;;;;;12.93;7.30;;;12.40;99.90;;;;;;4438348;28;658658;-66
2021/05/20 06:16:27;;;;;;;13.73;7.17;;;12.70;99.90;;;;;;4426169;28;657589;-67
2021/05/20 06:19:14;;;;;;;13.83;6.70;;;12.90;99.90;;;;;;4449993;28;658129;-66
2021/05/20 06:22:02;;;;;;;11.63;5.77;;;13.10;99.90;;;;;;4446296;28;657395;-66
2021/05/20 06:24:50;;;;;;;11.63;6.50;;;13.20;99.90;;;;;;4408790;28;657821;-65
2021/05/20 06:27:37;;;;;;;13.13;6.30;;;13.30;99.90;;;;;;4434881;28;658414;-67
2021/05/20 06:30:24;;;;;;;11.00;6.07;;;13.10;99.90;;;;;;4450497;28;657636;-66
2021/05/20 06:33:11;;;;;;;10.10;5.90;;;13.20;99.90;;;;;;4447070;28;658037;-66
2021/05/20 06:35:58;;;;;;;13.23;6.20;;;13.40;99.90;;;;;;4421522;28;657814;-66
2021/05/20 06:38:47;;;;;;;10.07;6.10;;;13.30;99.90;;;;;;4445141;28;658667;-66
2021/05/20 06:41:34;;;;;;;13.77;6.07;;;13.10;99.90;;;;;;4415083;28;658578;-66
2021/05/20 06:44:21;;;;;;;15.20;6.43;;;13.10;99.90;;;;;;4449727;28;657513;-67
2021/05/20 06:47:08;;;;;;;11.70;6.93;;;13.10;99.90;;;;;;4419301;28;657647;-66
2021/05/20 06:49:55;;;;;;;16.83;7.80;;;13.00;99.90;;;;;;4444168;28;658695;-66
2021/05/20 06:52:42;;;;;;;14.20;7.70;;;12.90;99.90;;;;;;4434522;28;657699;-68
2021/05/20 06:55:31;;;;;;;15.02;7.90;;;12.60;99.90;;;;;;4444330;28;660086;-66
2021/05/20 07:01:23;;;;;;;15.07;8.03;;;12.20;99.90;;;;;;4427041;28;657494;-68
2021/05/20 07:04:10;;;;;;;14.10;7.87;;;12.20;99.90;;;;;;4449313;28;657330;-67
2021/05/20 07:07:01;;;;;;;13.97;7.00;;;12.50;99.90;;;;;;4431295;28;657964;-68
2021/05/20 07:09:48;;;;;;;15.47;6.93;;;12.60;99.90;;;;;;4428983;28;657674;-66
2021/05/20 07:12:36;;;;;;;12.43;6.47;;;12.80;99.90;;;;;;4447827;28;657052;-67
2021/05/20 07:15:23;;;;;;;8.77;5.32;;;13.00;99.90;;;;;;4426798;28;658050;-66
2021/05/20 07:18:10;;;;;;;10.47;5.87;;;13.00;99.90;;;;;;4453473;28;657534;-67
2021/05/20 07:20:57;;;;;;;12.20;5.93;;;12.90;99.90;;;;;;4432178;28;657478;-67
2021/05/20 07:23:44;;;;;;;11.00;5.60;;;12.90;99.90;;;;;;4452867;28;657148;-67
2021/05/20 07:26:31;;;;;;;9.23;5.30;;;13.10;99.90;;;;;;4448682;28;657895;-66
2021/05/20 07:29:19;;;;;;;11.00;5.20;;;13.40;99.90;;;;;;4430362;28;656780;-66
2021/05/20 07:32:07;;;;;;;7.20;4.43;;;13.80;99.90;;;;;;4449328;28;657996;-66
2021/05/20 07:34:54;;;;;;;7.33;4.47;;;14.50;99.90;;;;;;4421525;28;657598;-66
2021/05/20 07:37:41;;;;;;;9.83;3.60;;;14.80;99.90;;;;;;4445779;28;656303;-66
2021/05/20 07:40:28;;;;;;;13.00;3.50;;;15.00;99.90;;;;;;4423598;28;656544;-67
2021/05/20 07:43:15;;;;;;;4.37;3.00;;;15.20;99.90;;;;;;4447825;28;658086;-67
2021/05/20 07:46:03;;;;;;;10.85;3.60;;;15.30;99.90;;;;;;4431179;28;656328;-68
2021/05/20 07:48:50;;;;;;;9.10;3.20;;;15.70;99.90;;;;;;4444845;28;658077;-68
2021/05/20 07:51:37;;;;;;;6.50;3.20;;;15.60;99.90;;;;;;4424417;28;657032;-67
2021/05/20 07:54:24;;;;;;;12.83;3.30;;;15.60;99.90;;;;;;4440341;28;657819;-66
2021/05/20 07:57:11;;;;;;;10.10;3.57;;;15.70;99.90;;;;;;4443871;28;657791;-66
2021/05/20 07:59:58;;;;;;;7.77;3.90;;;15.80;99.90;;;;;;4418692;28;657961;-67
2021/05/20 08:02:50;;;;;;;7.67;3.67;;;15.90;99.90;;;;;;4448321;28;658089;-66
2021/05/20 08:05:40;;;;;;;7.20;3.60;;;16.00;99.90;;;;;;4430018;28;656725;-68
2021/05/20 08:08:32;;;;;;;6.27;3.30;;;15.80;99.90;;;;;;4442449;28;656426;-68
2021/05/20 08:11:19;;;;;;;5.37;3.20;;;15.40;99.90;;;;;;4418275;28;657503;-66
2021/05/20 08:14:06;;;;;;;6.70;2.97;;;15.00;99.90;;;;;;4448206;28;656687;-67
2021/05/20 08:16:53;;;;;;;5.10;2.80;;;14.90;99.90;;;;;;4428966;28;656854;-66
2021/05/20 08:19:41;;;;;;;5.87;2.90;;;14.70;99.90;;;;;;4448826;28;656948;-66
2021/05/20 08:22:28;;;;;;;6.10;2.60;;;14.50;99.90;;;;;;4425165;28;656480;-67
2021/05/20 08:25:15;;;;;;;4.60;2.63;;;14.30;99.90;;;;;;4448888;28;656934;-66
2021/05/20 08:28:02;;;;;;;4.00;2.60;;;14.30;99.90;;;;;;4429982;28;656431;-68
2021/05/20 08:30:49;;;;;;;6.87;2.40;;;14.20;99.90;;;;;;4452649;28;656993;-66
2021/05/20 08:33:36;;;;;;;4.30;2.13;;;14.20;99.90;;;;;;4449780;28;656588;-66
2021/05/20 08:36:24;;;;;;;4.50;2.27;;;14.30;99.90;;;;;;4428150;28;656897;-66
2021/05/20 08:39:11;;;;;;;6.17;2.53;;;14.60;99.90;;;;;;4446782;28;656741;-66
2021/05/20 08:41:59;;;;;;;6.50;2.23;;;15.30;99.90;;;;;;4422837;28;656909;-66
2021/05/20 08:44:46;;;;;;;3.67;2.20;;;16.10;99.90;;;;;;4447440;28;656646;-67
2021/05/20 08:47:33;;;;;;;10.90;2.47;;;16.30;99.90;;;;;;4425278;28;657702;-67
2021/05/20 08:50:22;;;;;;;6.00;2.40;;;16.20;99.90;;;;;;4446258;28;658018;-66
2021/05/20 08:53:10;;;;;;;5.33;1.90;;;15.60;99.90;;;;;;4428844;28;657675;-66
2021/05/20 08:55:57;;;;;;;4.90;1.80;;;15.00;99.90;;;;;;4431486;28;657279;-68
2021/05/20 08:58:44;;;;;;;3.33;1.80;;;15.40;99.90;;;;;;4451912;28;657459;-66
2021/05/20 09:01:35;;;;;;;5.97;2.27;;;15.90;99.90;;;;;;4448464;28;656370;-66
2021/05/20 09:04:23;;;;;;;5.20;1.90;;;16.50;99.90;;;;;;4416553;28;656835;-68
2021/05/20 09:07:12;;;;;;;3.17;1.53;;;16.20;99.90;;;;;;4451900;28;657591;-67
2021/05/20 09:10:14;;;;;;;2.83;1.57;;;15.90;99.90;;;;;;4417735;28;656873;-68
2021/05/20 09:13:02;;;;;;;2.33;1.30;;;15.70;99.90;;;;;;4426437;28;656813;-66
2021/05/20 09:15:50;;;;;;;3.03;1.63;;;16.00;99.90;;;;;;4420203;28;657238;-67
2021/05/20 09:18:39;;;;;;;4.53;1.73;;;16.30;99.90;;;;;;4421983;28;656481;-68
2021/05/20 09:21:27;;;;;;;2.57;1.60;;;16.90;99.90;;;;;;4444758;28;656718;-67
2021/05/20 09:24:13;;;;;;;2.30;1.40;;;17.40;99.90;;;;;;4429054;28;657294;-66
2021/05/20 09:27:01;;;;;;;7.70;1.50;;;17.70;99.90;;;;;;4451659;28;656985;-66
2021/05/20 09:30:14;;;;;;;1.80;1.30;;;17.20;96.90;;;;;;4420529;28;656506;-67
2021/05/20 09:33:05;;;;;;;3.37;1.20;;;17.20;96.00;;;;;;4425106;28;656941;-66
2021/05/20 09:35:52;;;;;;;4.07;1.50;;;17.70;96.40;;;;;;4420125;28;656396;-68
2021/05/20 09:38:39;;;;;;;3.97;1.40;;;18.20;97.70;;;;;;4447047;28;656720;-67
2021/05/20 09:41:26;;;;;;;3.17;1.37;;;18.20;92.50;;;;;;4448233;28;656581;-67
2021/05/20 09:44:30;;;;;;;1.90;1.40;;;17.70;91.50;;;;;;4422882;28;656352;-67
2021/05/20 09:47:18;;;;;;;2.33;1.43;;;17.50;91.30;;;;;;4414092;28;657257;-68
2021/05/20 09:50:06;;;;;;;2.43;0.90;;;17.00;90.80;;;;;;4447233;28;657044;-67
2021/05/20 09:53:00;;;;;;;1.47;0.87;;;17.50;93.70;;;;;;4415995;28;657369;-67
2021/05/20 09:55:50;;;;;;;0.80;0.70;;;17.90;87.10;;;;;;4405229;28;656188;-67
2021/05/20 09:58:37;;;;;;;0.90;0.70;;;17.80;79.60;;;;;;4424535;28;656616;-68
2021/05/20 10:01:25;;;;;;;0.70;0.70;;;18.00;83.40;;;;;;4446200;28;657862;-66
2021/05/20 10:04:22;;;;;;;2.00;0.80;;;18.50;82.90;;;;;;4433305;28;656732;-68
2021/05/20 10:07:09;;;;;;;4.90;0.77;;;18.60;78.30;;;;;;4401369;28;656765;-67
2021/05/20 10:09:56;;;;;;;1.00;0.70;;;18.90;72.50;;;;;;4439247;28;656428;-67
2021/05/20 10:12:45;;;;;;;2.83;0.73;;;18.90;71.60;;;;;;4425020;28;656791;-67
2021/05/20 10:15:33;;;;;;;2.10;0.90;;;18.90;75.20;;;;;;4432062;28;657014;-69
2021/05/20 10:18:21;;;;;;;1.43;0.87;;;18.60;70.10;;;;;;4445786;28;657625;-67
2021/05/20 10:21:08;;;;;;;7.73;0.97;;;18.50;67.30;;;;;;4428166;28;656868;-65
2021/05/20 10:23:56;;;;;;;6.63;0.80;;;18.50;73.30;;;;;;4435294;28;656674;-65
2021/05/20 10:26:43;;;;;;;1.13;0.77;;;18.60;70.10;;;;;;4423925;28;656548;-66
2021/05/20 10:29:30;;;;;;;1.13;0.87;;;18.50;71.50;;;;;;4447142;28;656636;-66
2021/05/20 10:32:17;;;;;;;5.40;1.00;;;18.90;72.50;;;;;;4423310;28;656387;-66
2021/05/20 10:35:10;;;;;;;4.63;1.00;;;18.80;73.30;;;;;;4451819;28;656560;-66
2021/05/20 10:37:59;;;;;;;3.87;1.03;;;18.80;72.60;;;;;;4405687;28;656621;-66
2021/05/20 10:40:46;;;;;;;2.93;0.97;;;18.60;73.10;;;;;;4450816;28;656344;-65
2021/05/20 10:43:33;;;;;;;6.17;0.90;;;18.60;73.10;;;;;;4427959;28;656487;-66
2021/05/20 10:46:20;;;;;;;6.13;0.80;;;18.80;75.30;;;;;;4449836;28;657089;-66
2021/05/20 10:49:18;;;;;;;1.93;0.70;;;19.20;71.10;;;;;;4433913;28;657355;-66
2021/05/20 10:52:06;;;;;;;1.20;0.70;;;19.60;69.60;;;;;;4404145;28;656810;-66
2021/05/20 10:54:59;;;;;;;1.30;0.73;;;20.20;70.30;;;;;;4431769;28;656689;-66
2021/05/20 10:58:00;;;;;;;1.57;0.60;;;20.00;65.30;;;;;;4427194;28;656512;-65
2021/05/20 11:00:47;;;;;;;1.63;0.77;;;18.80;66.10;;;;;;4416348;28;656679;-66
2021/05/20 11:03:52;;;;;;;2.80;0.53;;;18.00;66.40;;;;;;4446188;28;656512;-65
2021/05/20 11:06:58;;;;;;;2.93;0.70;;;17.60;68.10;;;;;;4399107;28;656954;-65
2021/05/20 11:09:46;;;;;;;4.10;0.90;;;18.50;70.30;;;;;;4402190;28;656942;-65
2021/05/20 11:12:54;;;;;;;5.73;0.90;;;19.00;73.10;;;;;;4430421;28;657307;-66
2021/05/20 11:15:42;;;;;;;1.60;0.90;;;18.80;69.10;;;;;;4427219;28;656811;-66
2021/05/20 11:18:33;;;;;;;2.58;0.55;;;18.90;72.00;;;;;;4424632;28;656906;-65
2021/05/20 11:21:20;;;;;;;3.23;0.87;;;19.60;70.10;;;;;;4426584;28;656774;-66
2021/05/20 11:24:16;;;;;;;0.93;0.60;;;19.50;65.80;;;;;;4424570;28;657238;-66
2021/05/20 11:27:04;;;;;;;0.90;0.63;;;18.90;66.50;;;;;;4406664;28;657274;-66
2021/05/20 11:29:51;;;;;;;1.03;0.80;;;19.10;68.10;;;;;;4448585;28;656033;-65
2021/05/20 11:32:39;;;;;;;3.40;1.00;;;19.00;68.00;;;;;;4429700;28;656479;-65
2021/05/20 11:35:35;;;;;;;2.60;0.70;;;19.10;66.20;;;;;;4449853;28;656420;-65
2021/05/20 11:38:24;;;;;;;0.80;0.80;;;18.30;64.60;;;;;;4395707;28;657111;-67
2021/05/20 11:41:14;;;;;;;3.10;0.90;;;18.50;72.50;;;;;;4449421;28;657033;-66
2021/05/20 11:44:11;;;;;;;1.20;0.60;;;19.00;68.30;;;;;;4426118;28;656835;-66
2021/05/20 11:47:08;;;;;;;1.70;0.80;;;19.60;67.00;;;;;;4399245;28;657714;-66
2021/05/20 11:49:55;;;;;;;1.23;0.80;;;19.80;61.70;;;;;;4422555;28;657379;-66
2021/05/20 11:52:42;;;;;;;3.70;0.90;;;19.90;61.90;;;;;;4440222;28;657192;-67
2021/05/20 11:55:36;;;;;;;3.13;0.73;;;19.40;66.60;;;;;;4453777;28;656400;-65
2021/05/20 11:58:23;;;;;;;3.53;0.90;;;19.10;67.70;;;;;;4403464;28;656883;-66
2021/05/20 12:01:11;;;;;;;0.97;0.70;;;19.20;69.60;;;;;;4448647;28;657419;-67
2021/05/20 12:04:02;;;;;;;2.43;0.80;;;19.80;65.80;;;;;;4430216;28;656528;-67
2021/05/20 12:06:50;;;;;;;1.07;0.70;;;20.10;65.40;;;;;;4424394;28;656840;-66
2021/05/20 12:09:37;;;;;;;0.73;0.60;;;20.60;66.60;;;;;;4429870;28;656803;-68
2021/05/20 12:12:24;;;;;;;1.00;0.73;;;20.90;62.90;;;;;;4449995;28;656769;-66
2021/05/20 12:15:12;;;;;;;0.77;0.53;;;19.90;58.10;;;;;;4441885;28;656214;-67
2021/05/20 12:18:00;;;;;;;1.73;0.83;;;19.30;62.80;;;;;;4425812;28;657456;-67
2021/05/20 12:20:47;;;;;;;2.10;0.53;;;19.40;64.90;;;;;;4429644;28;656899;-68
2021/05/20 12:23:34;;;;;;;0.70;0.70;;;19.90;65.70;;;;;;4442052;28;658022;-66
2021/05/20 12:26:26;;;;;;;3.60;0.83;;;19.60;62.10;;;;;;4447411;28;657036;-67
2021/05/20 12:29:12;;;;;;;1.20;0.80;;;18.90;65.70;;;;;;4407043;28;656400;-67
2021/05/20 12:32:00;;;;;;;3.70;0.73;;;18.60;66.10;;;;;;4448717;28;657045;-67
2021/05/20 12:34:47;;;;;;;1.47;0.73;;;19.00;65.30;;;;;;4441877;28;656276;-67
2021/05/20 12:37:59;;;;;;;1.57;0.90;;;19.10;66.40;;;;;;4427278;28;657620;-67
2021/05/20 12:40:51;;;;;;;3.50;0.80;;;18.70;65.80;;;;;;4425100;28;656900;-67
2021/05/20 12:43:38;;;;;;;5.03;0.90;;;18.80;66.50;;;;;;4392876;28;656626;-67
2021/05/20 12:46:35;;;;;;;5.40;0.90;;;19.20;64.70;;;;;;4447407;28;657256;-67
2021/05/20 12:49:23;;;;;;;2.43;1.00;;;18.60;62.80;;;;;;4431656;28;656898;-69
2021/05/20 12:52:11;;;;;;;2.13;0.87;;;18.90;66.60;;;;;;4448212;28;657841;-67
2021/05/20 12:55:07;;;;;;;3.83;0.80;;;19.30;62.70;;;;;;4427913;28;656826;-66
2021/05/20 12:57:55;;;;;;;4.73;0.70;;;20.00;68.50;;;;;;4402115;28;657696;-67
2021/05/20 13:00:54;;;;;;;0.90;0.80;;;20.50;64.60;;;;;;4436434;28;656307;-68
2021/05/20 13:03:43;;;;;;;5.07;0.80;;;20.10;61.20;;;;;;4423943;28;656769;-66
2021/05/20 13:06:30;;;;;;;2.27;0.80;;;19.70;62.90;;;;;;4417291;28;657393;-67
2021/05/20 13:09:18;;;;;;;4.07;0.80;;;19.20;64.30;;;;;;4428903;28;656777;-68
2021/05/20 13:12:09;;;;;;;2.00;0.80;;;18.50;61.90;;;;;;4440907;28;657954;-66
2021/05/20 13:15:01;;;;;;;3.70;0.70;;;18.30;64.70;;;;;;4424832;28;656716;-67
2021/05/20 13:17:58;;;;;;;4.80;0.93;;;17.80;65.40;;;;;;4425548;28;656416;-67
2021/05/20 13:23:50;;;;;;;0.70;0.70;;;18.10;65.00;;;;;;4391805;28;656474;-67
2021/05/20 13:26:39;;;;;;;1.83;0.83;;;18.50;66.30;;;;;;4442511;28;656791;-68
2021/05/20 13:29:35;;;;;;;2.60;0.60;;;18.30;61.90;;;;;;4446699;28;657067;-66
2021/05/20 13:32:31;;;;;;;3.40;0.80;;;18.10;62.30;;;;;;4438229;28;656308;-68
2021/05/20 13:35:18;;;;;;;2.93;0.70;;;18.00;62.80;;;;;;4408549;28;657134;-67
2021/05/20 13:38:05;;;;;;;1.13;0.90;;;17.80;63.70;;;;;;4447236;28;657230;-67
2021/05/20 13:40:55;;;;;;;2.60;0.90;;;17.90;65.10;;;;;;4429101;28;656784;-69
2021/05/20 13:43:43;;;;;;;1.00;0.80;;;18.60;67.40;;;;;;4429778;28;656765;-67
2021/05/20 13:46:30;;;;;;;0.83;0.60;;;19.30;61.80;;;;;;4445675;28;657722;-66
2021/05/20 13:49:18;;;;;;;0.70;0.70;;;19.00;61.50;;;;;;4426867;28;656609;-68
2021/05/20 13:52:07;;;;;;;1.73;0.80;;;18.50;61.80;;;;;;4439975;28;657651;-66
2021/05/20 13:54:54;;;;;;;1.20;0.80;;;18.10;62.70;;;;;;4422386;28;656531;-68
2021/05/20 13:57:41;;;;;;;1.20;0.90;;;18.40;65.30;;;;;;4438703;28;656920;-67
2021/05/20 14:00:31;;;;;;;5.60;0.90;;;19.00;64.50;;;;;;4425772;28;656512;-67
2021/05/20 14:03:20;;;;;;;0.97;0.70;;;19.60;64.20;;;;;;4422927;28;656674;-67
2021/05/20 14:06:07;;;;;;;0.90;0.70;;;20.30;64.60;;;;;;4437780;28;656536;-68
2021/05/20 14:08:54;;;;;;;3.47;0.70;;;21.10;63.10;;;;;;4451485;28;657059;-67
2021/05/20 14:11:42;;;;;;;1.63;0.60;;;20.80;59.50;;;;;;4445605;28;656737;-67
2021/05/20 14:14:29;;;;;;;3.60;1.20;;;20.60;63.20;;;;;;4414980;28;656811;-66
2021/05/20 14:17:17;;;;;;;2.27;1.00;;;20.20;60.90;;;;;;4437690;28;656446;-66
2021/05/20 14:20:09;;;;;;;1.47;1.10;;;19.60;62.90;;;;;;4426669;28;656935;-66
2021/05/20 14:22:56;;;;;;;1.70;1.00;;;19.40;64.30;;;;;;4419170;28;656591;-66
2021/05/20 14:25:45;;;;;;;1.43;0.80;;;19.20;67.20;;;;;;4427051;28;656919;-67
2021/05/20 14:28:34;;;;;;;2.10;1.00;;;19.00;69.20;;;;;;4411552;28;656481;-68